sensor_id;sensor_type;location;lat;lon;timestamp;P1;durP1;ratioP1;P2;durP2;ratioP2
60239;SDS011;46102;39.012;-7.064;2023-11-19T00:01:56;4.43;;;4.03;;
60239;SDS011;46102;39.012;-7.064;2023-11-19T00:03:57;4.93;;;4.22;;
60239;SDS011;46102;39.012;-7.064;2023-11-19T00:05:59;4.45;;;4.07;;
60239;SDS011;46102;39.012;-7.064;2023-11-19T00:07:59;4.93;;;4.43;;
60239;SDS011;46102;39.012;-7.064;2023-11-19T00:10:00;7.53;;;4.18;;
60239;SDS011;46102;39.012;-7.064;2023-11-19T00:12:10;4.40;;;4.00;;
60239;SDS011;46102;39.012;-7.064;2023-11-19T00:14:11;3.85;;;3.63;;
60239;SDS011;46102;39.012;-7.064;2023-11-19T00:16:12;4.90;;;3.40;;
60239;SDS011;46102;39.012;-7.064;2023-11-19T00:18:12;3.88;;;3.60;;
60239;SDS011;46102;39.012;-7.064;2023-11-19T00:20:15;3.90;;;3.60;;
60239;SDS011;46102;39.012;-7.064;2023-11-19T00:22:19;3.63;;;3.33;;
60239;SDS011;46102;39.012;-7.064;2023-11-19T00:24:22;4.07;;;3.78;;
60239;SDS011;46102;39.012;-7.064;2023-11-19T00:26:22;4.50;;;3.42;;
60239;SDS011;46102;39.012;-7.064;2023-11-19T00:28:26;3.72;;;3.42;;
60239;SDS011;46102;39.012;-7.064;2023-11-19T00:30:27;4.00;;;3.70;;
60239;SDS011;46102;39.012;-7.064;2023-11-19T00:32:28;4.30;;;3.63;;
60239;SDS011;46102;39.012;-7.064;2023-11-19T00:34:29;4.25;;;3.85;;
60239;SDS011;46102;39.012;-7.064;2023-11-19T00:36:30;4.28;;;3.97;;
60239;SDS011;46102;39.012;-7.064;2023-11-19T00:38:31;5.18;;;4.68;;
60239;SDS011;46102;39.012;-7.064;2023-11-19T00:40:32;8.02;;;4.32;;
60239;SDS011;46102;39.012;-7.064;2023-11-19T00:42:32;5.85;;;4.72;;
60239;SDS011;46102;39.012;-7.064;2023-11-19T00:44:33;4.57;;;3.97;;
60239;SDS011;46102;39.012;-7.064;2023-11-19T00:46:34;4.32;;;3.92;;
60239;SDS011;46102;39.012;-7.064;2023-11-19T00:48:35;5.50;;;4.65;;
60239;SDS011;46102;39.012;-7.064;2023-11-19T00:50:35;10.07;;;5.75;;
60239;SDS011;46102;39.012;-7.064;2023-11-19T00:52:37;5.80;;;5.03;;
60239;SDS011;46102;39.012;-7.064;2023-11-19T00:54:38;6.50;;;5.07;;
60239;SDS011;46102;39.012;-7.064;2023-11-19T00:56:39;4.13;;;3.78;;
60239;SDS011;46102;39.012;-7.064;2023-11-19T00:58:40;4.38;;;4.05;;
60239;SDS011;46102;39.012;-7.064;2023-11-19T01:00:40;3.88;;;3.58;;
60239;SDS011;46102;39.012;-7.064;2023-11-19T01:02:43;4.35;;;3.55;;
60239;SDS011;46102;39.012;-7.064;2023-11-19T01:04:46;3.45;;;3.15;;
60239;SDS011;46102;39.012;-7.064;2023-11-19T01:06:46;5.35;;;3.67;;
60239;SDS011;46102;39.012;-7.064;2023-11-19T01:08:47;4.35;;;3.40;;
60239;SDS011;46102;39.012;-7.064;2023-11-19T01:10:48;4.10;;;3.75;;
60239;SDS011;46102;39.012;-7.064;2023-11-19T01:12:49;3.72;;;3.42;;
60239;SDS011;46102;39.012;-7.064;2023-11-19T01:14:50;3.78;;;3.47;;
60239;SDS011;46102;39.012;-7.064;2023-11-19T01:16:50;4.00;;;3.05;;
60239;SDS011;46102;39.012;-7.064;2023-11-19T01:18:51;3.85;;;3.55;;
60239;SDS011;46102;39.012;-7.064;2023-11-19T01:20:52;4.43;;;4.13;;
60239;SDS011;46102;39.012;-7.064;2023-11-19T01:22:53;3.70;;;3.42;;
60239;SDS011;46102;39.012;-7.064;2023-11-19T01:24:54;3.28;;;2.92;;
60239;SDS011;46102;39.012;-7.064;2023-11-19T01:26:55;3.60;;;3.30;;
60239;SDS011;46102;39.012;-7.064;2023-11-19T01:28:57;3.35;;;3.15;;
60239;SDS011;46102;39.012;-7.064;2023-11-19T01:30:58;4.03;;;3.70;;
60239;SDS011;46102;39.012;-7.064;2023-11-19T01:32:59;3.40;;;3.20;;
60239;SDS011;46102;39.012;-7.064;2023-11-19T01:35:00;3.45;;;3.25;;
60239;SDS011;46102;39.012;-7.064;2023-11-19T01:37:01;3.22;;;2.85;;
60239;SDS011;46102;39.012;-7.064;2023-11-19T01:39:02;3.33;;;2.95;;
60239;SDS011;46102;39.012;-7.064;2023-11-19T01:41:04;4.05;;;3.40;;
60239;SDS011;46102;39.012;-7.064;2023-11-19T01:43:05;3.22;;;3.03;;
60239;SDS011;46102;39.012;-7.064;2023-11-19T01:45:06;4.22;;;3.83;;
60239;SDS011;46102;39.012;-7.064;2023-11-19T01:47:10;3.33;;;3.03;;
60239;SDS011;46102;39.012;-7.064;2023-11-19T01:49:11;3.88;;;3.58;;
60239;SDS011;46102;39.012;-7.064;2023-11-19T01:51:13;3.75;;;2.78;;
60239;SDS011;46102;39.012;-7.064;2023-11-19T01:53:16;3.03;;;2.83;;
60239;SDS011;46102;39.012;-7.064;2023-11-19T01:55:18;2.85;;;2.65;;
60239;SDS011;46102;39.012;-7.064;2023-11-19T01:57:21;3.08;;;2.88;;
60239;SDS011;46102;39.012;-7.064;2023-11-19T01:59:23;3.83;;;3.30;;
60239;SDS011;46102;39.012;-7.064;2023-11-19T02:01:27;3.22;;;3.03;;
60239;SDS011;46102;39.012;-7.064;2023-11-19T02:03:28;4.60;;;3.28;;
60239;SDS011;46102;39.012;-7.064;2023-11-19T02:05:29;2.90;;;2.70;;
60239;SDS011;46102;39.012;-7.064;2023-11-19T02:07:32;3.10;;;2.85;;
60239;SDS011;46102;39.012;-7.064;2023-11-19T02:09:33;3.40;;;2.75;;
60239;SDS011;46102;39.012;-7.064;2023-11-19T02:11:34;2.83;;;2.63;;
60239;SDS011;46102;39.012;-7.064;2023-11-19T02:13:37;3.50;;;3.20;;
60239;SDS011;46102;39.012;-7.064;2023-11-19T02:15:38;3.85;;;3.15;;
60239;SDS011;46102;39.012;-7.064;2023-11-19T02:17:39;2.78;;;2.58;;
60239;SDS011;46102;39.012;-7.064;2023-11-19T02:19:39;3.00;;;2.80;;
60239;SDS011;46102;39.012;-7.064;2023-11-19T02:21:40;2.95;;;2.75;;
60239;SDS011;46102;39.012;-7.064;2023-11-19T02:23:42;3.30;;;2.67;;
60239;SDS011;46102;39.012;-7.064;2023-11-19T02:25:43;3.28;;;3.08;;
60239;SDS011;46102;39.012;-7.064;2023-11-19T02:27:53;2.85;;;2.65;;
60239;SDS011;46102;39.012;-7.064;2023-11-19T02:29:56;2.83;;;2.63;;
60239;SDS011;46102;39.012;-7.064;2023-11-19T02:31:57;2.42;;;2.30;;
60239;SDS011;46102;39.012;-7.064;2023-11-19T02:33:59;3.28;;;2.95;;
60239;SDS011;46102;39.012;-7.064;2023-11-19T02:36:01;2.80;;;2.60;;
60239;SDS011;46102;39.012;-7.064;2023-11-19T02:38:05;3.00;;;2.30;;
60239;SDS011;46102;39.012;-7.064;2023-11-19T02:40:07;3.90;;;2.97;;
60239;SDS011;46102;39.012;-7.064;2023-11-19T02:42:09;4.22;;;2.80;;
60239;SDS011;46102;39.012;-7.064;2023-11-19T02:44:10;4.03;;;2.90;;
60239;SDS011;46102;39.012;-7.064;2023-11-19T02:46:13;2.70;;;2.50;;
60239;SDS011;46102;39.012;-7.064;2023-11-19T02:48:13;3.13;;;2.72;;
60239;SDS011;46102;39.012;-7.064;2023-11-19T02:50:16;2.95;;;2.75;;
60239;SDS011;46102;39.012;-7.064;2023-11-19T02:52:17;2.70;;;2.50;;
60239;SDS011;46102;39.012;-7.064;2023-11-19T02:54:19;2.55;;;2.35;;
60239;SDS011;46102;39.012;-7.064;2023-11-19T02:56:21;4.75;;;2.75;;
60239;SDS011;46102;39.012;-7.064;2023-11-19T02:58:29;2.33;;;2.22;;
60239;SDS011;46102;39.012;-7.064;2023-11-19T03:00:30;4.32;;;3.13;;
60239;SDS011;46102;39.012;-7.064;2023-11-19T03:02:40;3.17;;;2.97;;
60239;SDS011;46102;39.012;-7.064;2023-11-19T03:04:48;3.08;;;2.88;;
60239;SDS011;46102;39.012;-7.064;2023-11-19T03:06:48;3.30;;;3.00;;
60239;SDS011;46102;39.012;-7.064;2023-11-19T03:08:49;2.90;;;2.70;;
60239;SDS011;46102;39.012;-7.064;2023-11-19T03:10:50;2.70;;;2.50;;
60239;SDS011;46102;39.012;-7.064;2023-11-19T03:12:51;3.35;;;3.15;;
60239;SDS011;46102;39.012;-7.064;2023-11-19T03:14:52;3.55;;;3.25;;
60239;SDS011;46102;39.012;-7.064;2023-11-19T03:16:53;4.22;;;3.83;;
60239;SDS011;46102;39.012;-7.064;2023-11-19T03:18:54;2.80;;;2.65;;
60239;SDS011;46102;39.012;-7.064;2023-11-19T03:20:55;3.17;;;2.92;;
60239;SDS011;46102;39.012;-7.064;2023-11-19T03:22:56;3.53;;;3.22;;
60239;SDS011;46102;39.012;-7.064;2023-11-19T03:24:58;3.15;;;2.95;;
60239;SDS011;46102;39.012;-7.064;2023-11-19T03:26:58;3.10;;;2.78;;
60239;SDS011;46102;39.012;-7.064;2023-11-19T03:28:59;2.75;;;2.38;;
60239;SDS011;46102;39.012;-7.064;2023-11-19T03:31:01;3.83;;;3.42;;
60239;SDS011;46102;39.012;-7.064;2023-11-19T03:33:04;3.17;;;2.97;;
60239;SDS011;46102;39.012;-7.064;2023-11-19T03:35:05;3.15;;;2.95;;
60239;SDS011;46102;39.012;-7.064;2023-11-19T03:39:10;3.30;;;3.10;;
60239;SDS011;46102;39.012;-7.064;2023-11-19T03:41:11;2.40;;;2.30;;
60239;SDS011;46102;39.012;-7.064;2023-11-19T03:43:13;3.60;;;3.30;;
60239;SDS011;46102;39.012;-7.064;2023-11-19T03:45:13;4.18;;;3.13;;
60239;SDS011;46102;39.012;-7.064;2023-11-19T03:47:16;3.28;;;2.97;;
60239;SDS011;46102;39.012;-7.064;2023-11-19T03:49:17;3.17;;;2.97;;
60239;SDS011;46102;39.012;-7.064;2023-11-19T03:51:18;3.35;;;3.05;;
60239;SDS011;46102;39.012;-7.064;2023-11-19T03:53:19;4.03;;;3.10;;
60239;SDS011;46102;39.012;-7.064;2023-11-19T03:55:20;2.67;;;2.47;;
60239;SDS011;46102;39.012;-7.064;2023-11-19T03:57:21;2.83;;;2.63;;
60239;SDS011;46102;39.012;-7.064;2023-11-19T03:59:22;2.90;;;2.70;;
60239;SDS011;46102;39.012;-7.064;2023-11-19T04:01:23;2.78;;;2.65;;
60239;SDS011;46102;39.012;-7.064;2023-11-19T04:03:24;3.40;;;3.20;;
60239;SDS011;46102;39.012;-7.064;2023-11-19T04:05:25;2.97;;;2.78;;
60239;SDS011;46102;39.012;-7.064;2023-11-19T04:07:25;5.38;;;3.10;;
60239;SDS011;46102;39.012;-7.064;2023-11-19T04:09:26;3.88;;;3.58;;
60239;SDS011;46102;39.012;-7.064;2023-11-19T04:11:27;2.90;;;2.65;;
60239;SDS011;46102;39.012;-7.064;2023-11-19T04:13:28;4.20;;;3.15;;
60239;SDS011;46102;39.012;-7.064;2023-11-19T04:15:29;4.55;;;2.92;;
60239;SDS011;46102;39.012;-7.064;2023-11-19T04:17:29;3.30;;;3.10;;
60239;SDS011;46102;39.012;-7.064;2023-11-19T04:19:30;3.22;;;2.92;;
60239;SDS011;46102;39.012;-7.064;2023-11-19T04:21:33;4.63;;;2.85;;
60239;SDS011;46102;39.012;-7.064;2023-11-19T04:23:33;2.67;;;2.47;;
60239;SDS011;46102;39.012;-7.064;2023-11-19T04:25:35;4.38;;;3.22;;
60239;SDS011;46102;39.012;-7.064;2023-11-19T04:27:36;3.55;;;3.25;;
60239;SDS011;46102;39.012;-7.064;2023-11-19T04:29:36;3.42;;;3.13;;
60239;SDS011;46102;39.012;-7.064;2023-11-19T04:31:37;4.65;;;3.38;;
60239;SDS011;46102;39.012;-7.064;2023-11-19T04:33:39;7.53;;;3.83;;
60239;SDS011;46102;39.012;-7.064;2023-11-19T04:35:40;3.63;;;2.90;;
60239;SDS011;46102;39.012;-7.064;2023-11-19T04:37:41;5.13;;;3.97;;
60239;SDS011;46102;39.012;-7.064;2023-11-19T04:39:44;4.75;;;3.65;;
60239;SDS011;46102;39.012;-7.064;2023-11-19T04:41:46;5.47;;;3.50;;
60239;SDS011;46102;39.012;-7.064;2023-11-19T04:43:49;3.58;;;3.28;;
60239;SDS011;46102;39.012;-7.064;2023-11-19T04:45:50;2.92;;;2.72;;
60239;SDS011;46102;39.012;-7.064;2023-11-19T04:47:50;3.75;;;3.45;;
60239;SDS011;46102;39.012;-7.064;2023-11-19T04:49:51;4.13;;;3.22;;
60239;SDS011;46102;39.012;-7.064;2023-11-19T04:51:52;5.78;;;3.70;;
60239;SDS011;46102;39.012;-7.064;2023-11-19T04:53:53;5.25;;;3.70;;
60239;SDS011;46102;39.012;-7.064;2023-11-19T04:55:54;2.90;;;2.70;;
60239;SDS011;46102;39.012;-7.064;2023-11-19T04:57:55;3.13;;;2.88;;
60239;SDS011;46102;39.012;-7.064;2023-11-19T04:59:56;3.60;;;3.30;;
60239;SDS011;46102;39.012;-7.064;2023-11-19T05:01:57;2.70;;;2.50;;
60239;SDS011;46102;39.012;-7.064;2023-11-19T05:03:58;3.03;;;2.83;;
60239;SDS011;46102;39.012;-7.064;2023-11-19T05:05:59;2.95;;;2.75;;
60239;SDS011;46102;39.012;-7.064;2023-11-19T05:08:00;3.05;;;2.80;;
60239;SDS011;46102;39.012;-7.064;2023-11-19T05:10:01;3.03;;;2.83;;
60239;SDS011;46102;39.012;-7.064;2023-11-19T05:12:04;3.10;;;2.90;;
60239;SDS011;46102;39.012;-7.064;2023-11-19T05:14:05;3.08;;;2.88;;
60239;SDS011;46102;39.012;-7.064;2023-11-19T05:16:06;3.50;;;3.15;;
60239;SDS011;46102;39.012;-7.064;2023-11-19T05:18:07;3.00;;;2.72;;
60239;SDS011;46102;39.012;-7.064;2023-11-19T05:20:10;3.35;;;3.03;;
60239;SDS011;46102;39.012;-7.064;2023-11-19T05:22:13;4.05;;;3.33;;
60239;SDS011;46102;39.012;-7.064;2023-11-19T05:24:14;3.17;;;2.95;;
60239;SDS011;46102;39.012;-7.064;2023-11-19T05:26:21;7.10;;;3.03;;
60239;SDS011;46102;39.012;-7.064;2023-11-19T05:28:23;3.08;;;2.88;;
60239;SDS011;46102;39.012;-7.064;2023-11-19T05:30:24;2.95;;;2.75;;
60239;SDS011;46102;39.012;-7.064;2023-11-19T05:32:25;2.83;;;2.63;;
60239;SDS011;46102;39.012;-7.064;2023-11-19T05:34:27;2.42;;;2.22;;
60239;SDS011;46102;39.012;-7.064;2023-11-19T05:36:27;2.70;;;2.50;;
60239;SDS011;46102;39.012;-7.064;2023-11-19T05:38:29;3.35;;;3.05;;
60239;SDS011;46102;39.012;-7.064;2023-11-19T05:40:30;2.50;;;2.30;;
60239;SDS011;46102;39.012;-7.064;2023-11-19T05:42:31;2.45;;;2.28;;
60239;SDS011;46102;39.012;-7.064;2023-11-19T05:44:31;3.50;;;2.13;;
60239;SDS011;46102;39.012;-7.064;2023-11-19T05:46:32;2.75;;;2.55;;
60239;SDS011;46102;39.012;-7.064;2023-11-19T05:48:33;3.10;;;2.90;;
60239;SDS011;46102;39.012;-7.064;2023-11-19T05:50:33;2.65;;;2.45;;
60239;SDS011;46102;39.012;-7.064;2023-11-19T05:52:34;2.50;;;2.30;;
60239;SDS011;46102;39.012;-7.064;2023-11-19T05:54:35;2.70;;;2.50;;
60239;SDS011;46102;39.012;-7.064;2023-11-19T05:56:38;2.58;;;2.45;;
60239;SDS011;46102;39.012;-7.064;2023-11-19T05:58:38;3.88;;;2.55;;
60239;SDS011;46102;39.012;-7.064;2023-11-19T06:00:40;2.88;;;2.65;;
60239;SDS011;46102;39.012;-7.064;2023-11-19T06:02:41;2.60;;;2.40;;
60239;SDS011;46102;39.012;-7.064;2023-11-19T06:04:43;2.80;;;2.60;;
60239;SDS011;46102;39.012;-7.064;2023-11-19T06:06:45;6.90;;;3.05;;
60239;SDS011;46102;39.012;-7.064;2023-11-19T06:08:45;3.13;;;2.85;;
60239;SDS011;46102;39.012;-7.064;2023-11-19T06:10:47;2.92;;;2.72;;
60239;SDS011;46102;39.012;-7.064;2023-11-19T06:12:50;2.75;;;2.55;;
60239;SDS011;46102;39.012;-7.064;2023-11-19T06:14:56;2.40;;;2.30;;
60239;SDS011;46102;39.012;-7.064;2023-11-19T06:16:57;2.97;;;2.78;;
60239;SDS011;46102;39.012;-7.064;2023-11-19T06:18:57;2.67;;;2.47;;
60239;SDS011;46102;39.012;-7.064;2023-11-19T06:20:58;2.60;;;2.40;;
60239;SDS011;46102;39.012;-7.064;2023-11-19T06:22:59;3.13;;;2.92;;
60239;SDS011;46102;39.012;-7.064;2023-11-19T06:25:00;3.33;;;3.03;;
60239;SDS011;46102;39.012;-7.064;2023-11-19T06:27:01;2.92;;;2.72;;
60239;SDS011;46102;39.012;-7.064;2023-11-19T06:29:03;2.88;;;2.67;;
60239;SDS011;46102;39.012;-7.064;2023-11-19T06:31:04;2.63;;;2.53;;
60239;SDS011;46102;39.012;-7.064;2023-11-19T06:33:05;3.60;;;3.30;;
60239;SDS011;46102;39.012;-7.064;2023-11-19T06:35:06;2.97;;;2.45;;
60239;SDS011;46102;39.012;-7.064;2023-11-19T06:37:07;3.58;;;3.28;;
60239;SDS011;46102;39.012;-7.064;2023-11-19T06:39:09;2.85;;;2.65;;
60239;SDS011;46102;39.012;-7.064;2023-11-19T06:41:13;2.80;;;2.60;;
60239;SDS011;46102;39.012;-7.064;2023-11-19T06:43:14;3.45;;;3.25;;
60239;SDS011;46102;39.012;-7.064;2023-11-19T06:45:15;3.80;;;3.50;;
60239;SDS011;46102;39.012;-7.064;2023-11-19T06:47:16;3.55;;;3.25;;
60239;SDS011;46102;39.012;-7.064;2023-11-19T06:49:17;4.05;;;3.67;;
60239;SDS011;46102;39.012;-7.064;2023-11-19T06:51:19;3.75;;;3.53;;
60239;SDS011;46102;39.012;-7.064;2023-11-19T06:53:20;3.42;;;3.22;;
60239;SDS011;46102;39.012;-7.064;2023-11-19T06:55:20;3.45;;;3.22;;
60239;SDS011;46102;39.012;-7.064;2023-11-19T06:57:21;4.03;;;3.63;;
60239;SDS011;46102;39.012;-7.064;2023-11-19T06:59:24;3.30;;;3.10;;
60239;SDS011;46102;39.012;-7.064;2023-11-19T07:01:24;4.15;;;3.85;;
60239;SDS011;46102;39.012;-7.064;2023-11-19T07:03:25;3.60;;;3.40;;
60239;SDS011;46102;39.012;-7.064;2023-11-19T07:05:26;3.13;;;2.92;;
60239;SDS011;46102;39.012;-7.064;2023-11-19T07:07:27;3.53;;;3.28;;
60239;SDS011;46102;39.012;-7.064;2023-11-19T07:09:27;3.72;;;3.42;;
60239;SDS011;46102;39.012;-7.064;2023-11-19T07:11:28;3.20;;;3.00;;
60239;SDS011;46102;39.012;-7.064;2023-11-19T07:13:29;4.65;;;4.20;;
60239;SDS011;46102;39.012;-7.064;2023-11-19T07:15:30;3.33;;;3.13;;
60239;SDS011;46102;39.012;-7.064;2023-11-19T07:17:31;3.47;;;3.17;;
60239;SDS011;46102;39.012;-7.064;2023-11-19T07:19:32;3.38;;;3.17;;
60239;SDS011;46102;39.012;-7.064;2023-11-19T07:21:32;3.95;;;3.65;;
60239;SDS011;46102;39.012;-7.064;2023-11-19T07:23:33;4.68;;;3.22;;
60239;SDS011;46102;39.012;-7.064;2023-11-19T07:25:34;8.80;;;4.35;;
60239;SDS011;46102;39.012;-7.064;2023-11-19T07:27:36;11.23;;;5.35;;
60239;SDS011;46102;39.012;-7.064;2023-11-19T07:29:37;9.73;;;4.75;;
60239;SDS011;46102;39.012;-7.064;2023-11-19T07:31:37;10.77;;;4.90;;
60239;SDS011;46102;39.012;-7.064;2023-11-19T07:33:39;11.48;;;5.72;;
60239;SDS011;46102;39.012;-7.064;2023-11-19T07:35:43;7.20;;;4.68;;
60239;SDS011;46102;39.012;-7.064;2023-11-19T07:37:44;7.07;;;5.05;;
60239;SDS011;46102;39.012;-7.064;2023-11-19T07:39:46;8.95;;;4.68;;
60239;SDS011;46102;39.012;-7.064;2023-11-19T07:41:46;10.60;;;5.40;;
60239;SDS011;46102;39.012;-7.064;2023-11-19T07:43:49;8.75;;;4.25;;
60239;SDS011;46102;39.012;-7.064;2023-11-19T07:45:50;8.35;;;5.43;;
60239;SDS011;46102;39.012;-7.064;2023-11-19T07:47:51;5.10;;;3.63;;
60239;SDS011;46102;39.012;-7.064;2023-11-19T07:49:52;7.07;;;3.70;;
60239;SDS011;46102;39.012;-7.064;2023-11-19T07:51:53;9.07;;;5.05;;
60239;SDS011;46102;39.012;-7.064;2023-11-19T07:53:53;8.65;;;5.03;;
60239;SDS011;46102;39.012;-7.064;2023-11-19T07:55:54;5.18;;;4.25;;
60239;SDS011;46102;39.012;-7.064;2023-11-19T07:57:55;11.85;;;5.32;;
60239;SDS011;46102;39.012;-7.064;2023-11-19T07:59:57;7.25;;;4.60;;
60239;SDS011;46102;39.012;-7.064;2023-11-19T08:01:58;9.15;;;5.15;;
60239;SDS011;46102;39.012;-7.064;2023-11-19T08:03:59;11.70;;;4.82;;
60239;SDS011;46102;39.012;-7.064;2023-11-19T08:06:02;11.32;;;4.88;;
60239;SDS011;46102;39.012;-7.064;2023-11-19T08:08:04;8.18;;;5.45;;
60239;SDS011;46102;39.012;-7.064;2023-11-19T08:10:05;12.32;;;6.50;;
60239;SDS011;46102;39.012;-7.064;2023-11-19T08:12:06;6.28;;;4.53;;
60239;SDS011;46102;39.012;-7.064;2023-11-19T08:14:07;18.92;;;6.80;;
60239;SDS011;46102;39.012;-7.064;2023-11-19T08:16:08;6.82;;;4.40;;
60239;SDS011;46102;39.012;-7.064;2023-11-19T08:18:10;7.05;;;4.10;;
60239;SDS011;46102;39.012;-7.064;2023-11-19T08:20:10;9.60;;;4.63;;
60239;SDS011;46102;39.012;-7.064;2023-11-19T08:22:11;7.40;;;4.60;;
60239;SDS011;46102;39.012;-7.064;2023-11-19T08:24:12;7.72;;;3.63;;
60239;SDS011;46102;39.012;-7.064;2023-11-19T08:26:14;5.18;;;4.15;;
60239;SDS011;46102;39.012;-7.064;2023-11-19T08:28:15;6.35;;;4.18;;
60239;SDS011;46102;39.012;-7.064;2023-11-19T08:30:16;7.55;;;5.55;;
60239;SDS011;46102;39.012;-7.064;2023-11-19T08:32:16;8.35;;;5.50;;
60239;SDS011;46102;39.012;-7.064;2023-11-19T08:34:17;10.88;;;6.57;;
60239;SDS011;46102;39.012;-7.064;2023-11-19T08:36:18;13.55;;;8.23;;
60239;SDS011;46102;39.012;-7.064;2023-11-19T08:38:19;10.88;;;6.57;;
60239;SDS011;46102;39.012;-7.064;2023-11-19T08:40:20;7.70;;;4.75;;
60239;SDS011;46102;39.012;-7.064;2023-11-19T08:42:20;8.30;;;4.10;;
60239;SDS011;46102;39.012;-7.064;2023-11-19T08:44:22;3.70;;;3.08;;
60239;SDS011;46102;39.012;-7.064;2023-11-19T08:46:22;2.75;;;2.55;;
60239;SDS011;46102;39.012;-7.064;2023-11-19T08:48:23;2.65;;;2.45;;
60239;SDS011;46102;39.012;-7.064;2023-11-19T08:50:24;2.47;;;2.28;;
60239;SDS011;46102;39.012;-7.064;2023-11-19T08:52:25;3.78;;;2.83;;
60239;SDS011;46102;39.012;-7.064;2023-11-19T08:54:26;2.50;;;2.30;;
60239;SDS011;46102;39.012;-7.064;2023-11-19T08:56:26;2.70;;;2.50;;
60239;SDS011;46102;39.012;-7.064;2023-11-19T08:58:32;2.40;;;2.22;;
60239;SDS011;46102;39.012;-7.064;2023-11-19T09:00:32;2.53;;;2.42;;
60239;SDS011;46102;39.012;-7.064;2023-11-19T09:02:34;3.58;;;2.38;;
60239;SDS011;46102;39.012;-7.064;2023-11-19T09:04:37;3.05;;;2.80;;
60239;SDS011;46102;39.012;-7.064;2023-11-19T09:06:38;2.70;;;2.50;;
60239;SDS011;46102;39.012;-7.064;2023-11-19T09:08:38;2.55;;;2.35;;
60239;SDS011;46102;39.012;-7.064;2023-11-19T09:10:39;10.35;;;3.25;;
60239;SDS011;46102;39.012;-7.064;2023-11-19T09:12:40;2.55;;;2.35;;
60239;SDS011;46102;39.012;-7.064;2023-11-19T09:14:41;3.67;;;2.22;;
60239;SDS011;46102;39.012;-7.064;2023-11-19T09:16:42;2.55;;;2.20;;
60239;SDS011;46102;39.012;-7.064;2023-11-19T09:18:43;2.63;;;2.42;;
60239;SDS011;46102;39.012;-7.064;2023-11-19T09:20:44;2.55;;;2.45;;
60239;SDS011;46102;39.012;-7.064;2023-11-19T09:22:45;2.25;;;2.15;;
60239;SDS011;46102;39.012;-7.064;2023-11-19T09:24:46;2.13;;;2.03;;
60239;SDS011;46102;39.012;-7.064;2023-11-19T09:26:48;2.28;;;2.17;;
60239;SDS011;46102;39.012;-7.064;2023-11-19T09:28:49;2.00;;;1.90;;
60239;SDS011;46102;39.012;-7.064;2023-11-19T09:30:50;4.50;;;2.40;;
60239;SDS011;46102;39.012;-7.064;2023-11-19T09:32:51;1.80;;;1.70;;
60239;SDS011;46102;39.012;-7.064;2023-11-19T09:34:52;1.70;;;1.60;;
60239;SDS011;46102;39.012;-7.064;2023-11-19T09:36:52;2.00;;;1.90;;
60239;SDS011;46102;39.012;-7.064;2023-11-19T09:38:53;1.90;;;1.80;;
60239;SDS011;46102;39.012;-7.064;2023-11-19T09:40:54;3.03;;;2.17;;
60239;SDS011;46102;39.012;-7.064;2023-11-19T09:42:55;3.15;;;1.60;;
60239;SDS011;46102;39.012;-7.064;2023-11-19T09:44:56;2.13;;;1.92;;
60239;SDS011;46102;39.012;-7.064;2023-11-19T09:46:59;1.90;;;1.80;;
60239;SDS011;46102;39.012;-7.064;2023-11-19T09:49:01;1.63;;;1.52;;
60239;SDS011;46102;39.012;-7.064;2023-11-19T09:51:05;2.08;;;1.98;;
60239;SDS011;46102;39.012;-7.064;2023-11-19T09:53:07;1.80;;;1.70;;
60239;SDS011;46102;39.012;-7.064;2023-11-19T09:55:08;1.70;;;1.60;;
60239;SDS011;46102;39.012;-7.064;2023-11-19T09:57:09;2.05;;;1.85;;
60239;SDS011;46102;39.012;-7.064;2023-11-19T09:59:12;2.23;;;2.00;;
60239;SDS011;46102;39.012;-7.064;2023-11-19T10:01:13;2.45;;;1.98;;
60239;SDS011;46102;39.012;-7.064;2023-11-19T10:03:15;1.40;;;1.30;;
60239;SDS011;46102;39.012;-7.064;2023-11-19T10:05:17;1.83;;;1.73;;
60239;SDS011;46102;39.012;-7.064;2023-11-19T10:07:21;1.90;;;1.80;;
60239;SDS011;46102;39.012;-7.064;2023-11-19T10:09:21;3.05;;;2.80;;
60239;SDS011;46102;39.012;-7.064;2023-11-19T10:11:22;1.83;;;1.73;;
60239;SDS011;46102;39.012;-7.064;2023-11-19T10:13:26;3.58;;;1.70;;
60239;SDS011;46102;39.012;-7.064;2023-11-19T10:15:28;2.30;;;2.13;;
60239;SDS011;46102;39.012;-7.064;2023-11-19T10:17:36;1.95;;;1.80;;
60239;SDS011;46102;39.012;-7.064;2023-11-19T10:19:39;5.28;;;1.90;;
60239;SDS011;46102;39.012;-7.064;2023-11-19T10:26:03;2.42;;;2.22;;
60239;SDS011;46102;39.012;-7.064;2023-11-19T10:28:07;1.83;;;1.73;;
60239;SDS011;46102;39.012;-7.064;2023-11-19T10:30:08;3.78;;;2.20;;
60239;SDS011;46102;39.012;-7.064;2023-11-19T10:32:11;2.45;;;2.28;;
60239;SDS011;46102;39.012;-7.064;2023-11-19T10:34:25;5.65;;;2.67;;
60239;SDS011;46102;39.012;-7.064;2023-11-19T10:36:39;4.85;;;2.85;;
60239;SDS011;46102;39.012;-7.064;2023-11-19T10:38:53;2.53;;;2.33;;
60239;SDS011;46102;39.012;-7.064;2023-11-19T10:40:55;2.55;;;2.35;;
60239;SDS011;46102;39.012;-7.064;2023-11-19T10:43:02;2.40;;;2.17;;
60239;SDS011;46102;39.012;-7.064;2023-11-19T10:45:04;4.55;;;2.03;;
60239;SDS011;46102;39.012;-7.064;2023-11-19T10:47:05;4.28;;;2.30;;
60239;SDS011;46102;39.012;-7.064;2023-11-19T10:49:08;5.20;;;3.05;;
60239;SDS011;46102;39.012;-7.064;2023-11-19T10:51:09;2.53;;;2.30;;
60239;SDS011;46102;39.012;-7.064;2023-11-19T10:53:11;2.33;;;2.13;;
60239;SDS011;46102;39.012;-7.064;2023-11-19T10:55:13;2.22;;;2.03;;
60239;SDS011;46102;39.012;-7.064;2023-11-19T10:57:20;2.20;;;2.10;;
60239;SDS011;46102;39.012;-7.064;2023-11-19T10:59:23;2.42;;;2.15;;
60239;SDS011;46102;39.012;-7.064;2023-11-19T11:01:26;2.00;;;1.90;;
60239;SDS011;46102;39.012;-7.064;2023-11-19T11:03:39;1.70;;;1.60;;
60239;SDS011;46102;39.012;-7.064;2023-11-19T11:05:40;4.50;;;2.00;;
60239;SDS011;46102;39.012;-7.064;2023-11-19T11:07:43;2.13;;;2.03;;
60239;SDS011;46102;39.012;-7.064;2023-11-19T11:09:44;1.92;;;1.83;;
60239;SDS011;46102;39.012;-7.064;2023-11-19T11:11:49;3.45;;;1.85;;
60239;SDS011;46102;39.012;-7.064;2023-11-19T11:13:52;1.83;;;1.73;;
60239;SDS011;46102;39.012;-7.064;2023-11-19T11:15:55;5.07;;;1.80;;
60239;SDS011;46102;39.012;-7.064;2023-11-19T11:18:01;2.10;;;2.00;;
60239;SDS011;46102;39.012;-7.064;2023-11-19T11:20:02;3.80;;;2.13;;
60239;SDS011;46102;39.012;-7.064;2023-11-19T11:22:04;2.13;;;1.92;;
60239;SDS011;46102;39.012;-7.064;2023-11-19T11:29:24;2.10;;;2.00;;
60239;SDS011;46102;39.012;-7.064;2023-11-19T11:31:35;6.18;;;1.95;;
60239;SDS011;46102;39.012;-7.064;2023-11-19T11:33:56;1.58;;;1.48;;
60239;SDS011;46102;39.012;-7.064;2023-11-19T11:36:17;6.93;;;2.78;;
60239;SDS011;46102;39.012;-7.064;2023-11-19T11:38:21;5.20;;;2.20;;
60239;SDS011;46102;39.012;-7.064;2023-11-19T11:40:25;2.20;;;2.03;;
60239;SDS011;46102;39.012;-7.064;2023-11-19T11:44:57;2.28;;;1.85;;
60239;SDS011;46102;39.012;-7.064;2023-11-19T11:47:00;2.42;;;1.88;;
60239;SDS011;46102;39.012;-7.064;2023-11-19T11:49:05;3.42;;;3.13;;
60239;SDS011;46102;39.012;-7.064;2023-11-19T11:51:06;3.35;;;2.40;;
60239;SDS011;46102;39.012;-7.064;2023-11-19T11:53:15;2.63;;;2.05;;
60239;SDS011;46102;39.012;-7.064;2023-11-19T11:55:17;2.38;;;2.00;;
60239;SDS011;46102;39.012;-7.064;2023-11-19T11:57:18;2.00;;;1.90;;
60239;SDS011;46102;39.012;-7.064;2023-11-19T11:59:19;2.33;;;2.20;;
60239;SDS011;46102;39.012;-7.064;2023-11-19T12:01:20;1.98;;;1.83;;
60239;SDS011;46102;39.012;-7.064;2023-11-19T12:03:21;2.00;;;1.90;;
60239;SDS011;46102;39.012;-7.064;2023-11-19T12:05:23;4.30;;;1.77;;
60239;SDS011;46102;39.012;-7.064;2023-11-19T12:07:24;1.80;;;1.70;;
60239;SDS011;46102;39.012;-7.064;2023-11-19T12:09:25;2.85;;;1.60;;
60239;SDS011;46102;39.012;-7.064;2023-11-19T12:11:26;2.22;;;1.90;;
60239;SDS011;46102;39.012;-7.064;2023-11-19T12:13:42;2.47;;;1.33;;
60239;SDS011;46102;39.012;-7.064;2023-11-19T12:17:57;2.00;;;1.67;;
60239;SDS011;46102;39.012;-7.064;2023-11-19T12:19:59;2.20;;;1.83;;